sensor_id;sensor_type;location;lat;lon;timestamp;temperature;humidity
19803;DHT22;66074;50.764;6.090;2023-03-03T00:01:07;4.10;86.90
19803;DHT22;66074;50.764;6.090;2023-03-03T00:03:33;4.00;86.90
19803;DHT22;66074;50.764;6.090;2023-03-03T00:05:59;4.00;86.20
19803;DHT22;66074;50.764;6.090;2023-03-03T00:08:25;4.00;86.80
19803;DHT22;66074;50.764;6.090;2023-03-03T00:10:51;4.00;87.50
19803;DHT22;66074;50.764;6.090;2023-03-03T00:13:25;4.00;87.50
19803;DHT22;66074;50.764;6.090;2023-03-03T00:15:52;4.00;88.00
19803;DHT22;66074;50.764;6.090;2023-03-03T00:18:35;4.00;87.90
19803;DHT22;66074;50.764;6.090;2023-03-03T00:21:02;4.00;88.60
19803;DHT22;66074;50.764;6.090;2023-03-03T00:23:36;4.00;87.80
19803;DHT22;66074;50.764;6.090;2023-03-03T00:26:14;4.00;88.40
19803;DHT22;66074;50.764;6.090;2023-03-03T00:28:46;3.90;88.40
19803;DHT22;66074;50.764;6.090;2023-03-03T00:31:16;3.90;88.80
19803;DHT22;66074;50.764;6.090;2023-03-03T00:33:50;3.90;88.80
19803;DHT22;66074;50.764;6.090;2023-03-03T00:36:35;3.90;88.30
19803;DHT22;66074;50.764;6.090;2023-03-03T00:41:48;3.80;90.00
19803;DHT22;66074;50.764;6.090;2023-03-03T00:47:36;3.70;90.30
19803;DHT22;66074;50.764;6.090;2023-03-03T00:52:34;3.70;89.10
19803;DHT22;66074;50.764;6.090;2023-03-03T00:55:00;3.60;89.00
19803;DHT22;66074;50.764;6.090;2023-03-03T00:57:26;3.60;88.80
19803;DHT22;66074;50.764;6.090;2023-03-03T00:59:52;3.60;89.50
19803;DHT22;66074;50.764;6.090;2023-03-03T01:02:17;3.60;89.70
19803;DHT22;66074;50.764;6.090;2023-03-03T01:04:50;3.60;89.20
19803;DHT22;66074;50.764;6.090;2023-03-03T01:07:16;3.60;89.90
19803;DHT22;66074;50.764;6.090;2023-03-03T01:09:42;3.50;89.30
19803;DHT22;66074;50.764;6.090;2023-03-03T01:12:08;3.60;89.50
19803;DHT22;66074;50.764;6.090;2023-03-03T01:14:34;3.50;89.30
19803;DHT22;66074;50.764;6.090;2023-03-03T01:17:01;3.50;89.70
19803;DHT22;66074;50.764;6.090;2023-03-03T01:19:27;3.50;89.40
19803;DHT22;66074;50.764;6.090;2023-03-03T01:21:52;3.50;89.40
19803;DHT22;66074;50.764;6.090;2023-03-03T01:24:18;3.50;88.60
19803;DHT22;66074;50.764;6.090;2023-03-03T01:26:44;3.50;88.90
19803;DHT22;66074;50.764;6.090;2023-03-03T01:29:09;3.40;88.50
19803;DHT22;66074;50.764;6.090;2023-03-03T01:31:35;3.50;89.80
19803;DHT22;66074;50.764;6.090;2023-03-03T01:34:00;3.40;89.50
19803;DHT22;66074;50.764;6.090;2023-03-03T01:36:27;3.50;89.60
19803;DHT22;66074;50.764;6.090;2023-03-03T01:38:53;3.50;89.80
19803;DHT22;66074;50.764;6.090;2023-03-03T01:41:19;3.60;89.60
19803;DHT22;66074;50.764;6.090;2023-03-03T01:43:47;3.60;89.70
19803;DHT22;66074;50.764;6.090;2023-03-03T01:49:10;3.80;90.10
19803;DHT22;66074;50.764;6.090;2023-03-03T01:51:46;3.90;89.80
19803;DHT22;66074;50.764;6.090;2023-03-03T01:54:17;4.00;90.00
19803;DHT22;66074;50.764;6.090;2023-03-03T01:56:44;4.00;89.30
19803;DHT22;66074;50.764;6.090;2023-03-03T01:59:31;4.00;89.70
19803;DHT22;66074;50.764;6.090;2023-03-03T02:01:58;4.00;90.30
19803;DHT22;66074;50.764;6.090;2023-03-03T02:04:23;4.00;90.10
19803;DHT22;66074;50.764;6.090;2023-03-03T02:06:57;3.90;90.10
19803;DHT22;66074;50.764;6.090;2023-03-03T02:09:44;3.90;90.20
19803;DHT22;66074;50.764;6.090;2023-03-03T02:12:16;3.80;90.70
19803;DHT22;66074;50.764;6.090;2023-03-03T02:14:42;3.70;90.80
19803;DHT22;66074;50.764;6.090;2023-03-03T02:17:08;3.60;90.60
19803;DHT22;66074;50.764;6.090;2023-03-03T02:23:03;3.50;92.00
19803;DHT22;66074;50.764;6.090;2023-03-03T02:25:40;3.50;90.50
19803;DHT22;66074;50.764;6.090;2023-03-03T02:28:07;3.50;90.80
19803;DHT22;66074;50.764;6.090;2023-03-03T02:30:37;3.40;90.50
19803;DHT22;66074;50.764;6.090;2023-03-03T02:33:03;3.30;90.40
19803;DHT22;66074;50.764;6.090;2023-03-03T02:35:37;3.30;90.80
19803;DHT22;66074;50.764;6.090;2023-03-03T02:38:36;3.20;91.40
19803;DHT22;66074;50.764;6.090;2023-03-03T02:41:13;3.00;92.60
19803;DHT22;66074;50.764;6.090;2023-03-03T02:44:02;3.00;91.10
19803;DHT22;66074;50.764;6.090;2023-03-03T02:46:35;3.00;92.00
19803;DHT22;66074;50.764;6.090;2023-03-03T02:49:02;3.10;91.40
19803;DHT22;66074;50.764;6.090;2023-03-03T02:51:28;3.10;91.20
19803;DHT22;66074;50.764;6.090;2023-03-03T02:53:53;3.10;91.20
19803;DHT22;66074;50.764;6.090;2023-03-03T02:56:19;2.90;91.00
19803;DHT22;66074;50.764;6.090;2023-03-03T02:58:44;2.90;91.30
19803;DHT22;66074;50.764;6.090;2023-03-03T03:01:10;2.80;91.30
19803;DHT22;66074;50.764;6.090;2023-03-03T03:03:36;2.70;91.90
19803;DHT22;66074;50.764;6.090;2023-03-03T03:06:02;2.60;92.00
19803;DHT22;66074;50.764;6.090;2023-03-03T03:08:27;2.60;91.50
19803;DHT22;66074;50.764;6.090;2023-03-03T03:10:53;2.50;91.40
19803;DHT22;66074;50.764;6.090;2023-03-03T03:13:21;2.50;91.80
19803;DHT22;66074;50.764;6.090;2023-03-03T03:15:47;2.50;91.90
19803;DHT22;66074;50.764;6.090;2023-03-03T03:18:13;2.60;92.20
19803;DHT22;66074;50.764;6.090;2023-03-03T03:20:39;2.50;92.20
19803;DHT22;66074;50.764;6.090;2023-03-03T03:23:06;2.50;91.80
19803;DHT22;66074;50.764;6.090;2023-03-03T03:25:32;2.50;93.10
19803;DHT22;66074;50.764;6.090;2023-03-03T03:27:57;2.40;92.60
19803;DHT22;66074;50.764;6.090;2023-03-03T03:30:23;2.40;92.30
19803;DHT22;66074;50.764;6.090;2023-03-03T03:32:49;2.50;92.20
19803;DHT22;66074;50.764;6.090;2023-03-03T03:35:14;2.50;92.20
19803;DHT22;66074;50.764;6.090;2023-03-03T03:37:42;2.60;92.40
19803;DHT22;66074;50.764;6.090;2023-03-03T03:40:08;2.60;92.30
19803;DHT22;66074;50.764;6.090;2023-03-03T03:42:34;2.70;92.20
19803;DHT22;66074;50.764;6.090;2023-03-03T03:44:59;2.70;92.40
19803;DHT22;66074;50.764;6.090;2023-03-03T03:47:25;2.70;92.90
19803;DHT22;66074;50.764;6.090;2023-03-03T03:49:51;2.60;92.60
19803;DHT22;66074;50.764;6.090;2023-03-03T03:52:17;2.60;92.40
19803;DHT22;66074;50.764;6.090;2023-03-03T03:54:42;2.60;92.40
19803;DHT22;66074;50.764;6.090;2023-03-03T03:57:08;2.60;92.50
19803;DHT22;66074;50.764;6.090;2023-03-03T03:59:33;2.60;92.40
19803;DHT22;66074;50.764;6.090;2023-03-03T04:01:59;2.50;92.70
19803;DHT22;66074;50.764;6.090;2023-03-03T04:04:24;2.50;92.80
19803;DHT22;66074;50.764;6.090;2023-03-03T04:06:50;2.50;92.80
19803;DHT22;66074;50.764;6.090;2023-03-03T04:09:16;2.60;93.10
19803;DHT22;66074;50.764;6.090;2023-03-03T04:11:41;2.60;93.00
19803;DHT22;66074;50.764;6.090;2023-03-03T04:14:07;2.50;93.70
19803;DHT22;66074;50.764;6.090;2023-03-03T04:16:32;2.30;93.40
19803;DHT22;66074;50.764;6.090;2023-03-03T04:18:58;2.30;93.40
19803;DHT22;66074;50.764;6.090;2023-03-03T04:21:24;2.30;93.30
19803;DHT22;66074;50.764;6.090;2023-03-03T04:23:50;2.40;93.60
19803;DHT22;66074;50.764;6.090;2023-03-03T04:26:17;2.40;94.10
19803;DHT22;66074;50.764;6.090;2023-03-03T04:28:43;2.40;93.20
19803;DHT22;66074;50.764;6.090;2023-03-03T04:31:09;2.50;93.30
19803;DHT22;66074;50.764;6.090;2023-03-03T04:33:34;2.60;93.30
19803;DHT22;66074;50.764;6.090;2023-03-03T04:36:00;2.60;93.10
19803;DHT22;66074;50.764;6.090;2023-03-03T04:38:26;2.60;93.10
19803;DHT22;66074;50.764;6.090;2023-03-03T04:40:52;2.70;93.40
19803;DHT22;66074;50.764;6.090;2023-03-03T04:43:18;2.70;93.50
19803;DHT22;66074;50.764;6.090;2023-03-03T04:45:44;2.70;93.60
19803;DHT22;66074;50.764;6.090;2023-03-03T04:48:09;2.70;93.40
19803;DHT22;66074;50.764;6.090;2023-03-03T04:50:35;2.60;93.50
19803;DHT22;66074;50.764;6.090;2023-03-03T04:53:01;2.60;93.60
19803;DHT22;66074;50.764;6.090;2023-03-03T04:55:26;2.60;93.70
19803;DHT22;66074;50.764;6.090;2023-03-03T04:57:52;2.60;93.50
19803;DHT22;66074;50.764;6.090;2023-03-03T05:00:18;2.60;93.50
19803;DHT22;66074;50.764;6.090;2023-03-03T05:02:46;2.60;93.70
19803;DHT22;66074;50.764;6.090;2023-03-03T05:05:12;2.70;93.70
19803;DHT22;66074;50.764;6.090;2023-03-03T05:07:38;2.70;93.50
19803;DHT22;66074;50.764;6.090;2023-03-03T05:10:05;2.60;94.00
19803;DHT22;66074;50.764;6.090;2023-03-03T05:12:31;2.60;94.00
19803;DHT22;66074;50.764;6.090;2023-03-03T05:14:56;2.50;94.20
19803;DHT22;66074;50.764;6.090;2023-03-03T05:17:22;2.50;94.60
19803;DHT22;66074;50.764;6.090;2023-03-03T05:19:48;2.50;94.70
19803;DHT22;66074;50.764;6.090;2023-03-03T05:22:13;2.40;94.10
19803;DHT22;66074;50.764;6.090;2023-03-03T05:24:39;2.40;94.30
19803;DHT22;66074;50.764;6.090;2023-03-03T05:27:07;2.30;94.30
19803;DHT22;66074;50.764;6.090;2023-03-03T05:29:33;2.30;94.70
19803;DHT22;66074;50.764;6.090;2023-03-03T05:31:58;2.30;95.20
19803;DHT22;66074;50.764;6.090;2023-03-03T05:34:24;2.30;94.60
19803;DHT22;66074;50.764;6.090;2023-03-03T05:36:49;2.40;95.00
19803;DHT22;66074;50.764;6.090;2023-03-03T05:39:15;2.50;94.50
19803;DHT22;66074;50.764;6.090;2023-03-03T05:41:41;2.60;94.90
19803;DHT22;66074;50.764;6.090;2023-03-03T05:44:07;2.60;94.60
19803;DHT22;66074;50.764;6.090;2023-03-03T05:46:33;2.60;94.40
19803;DHT22;66074;50.764;6.090;2023-03-03T05:48:58;2.70;94.50
19803;DHT22;66074;50.764;6.090;2023-03-03T05:51:24;2.50;94.30
19803;DHT22;66074;50.764;6.090;2023-03-03T05:53:50;2.60;94.50
19803;DHT22;66074;50.764;6.090;2023-03-03T05:56:15;2.60;94.40
19803;DHT22;66074;50.764;6.090;2023-03-03T05:58:42;2.60;94.40
19803;DHT22;66074;50.764;6.090;2023-03-03T06:01:08;2.60;94.60
19803;DHT22;66074;50.764;6.090;2023-03-03T06:03:33;2.60;94.90
19803;DHT22;66074;50.764;6.090;2023-03-03T06:05:59;2.70;94.90
19803;DHT22;66074;50.764;6.090;2023-03-03T06:08:24;2.80;94.60
19803;DHT22;66074;50.764;6.090;2023-03-03T06:10:50;2.80;94.80
19803;DHT22;66074;50.764;6.090;2023-03-03T06:13:16;2.60;94.70
19803;DHT22;66074;50.764;6.090;2023-03-03T06:15:41;2.60;94.80
19803;DHT22;66074;50.764;6.090;2023-03-03T06:18:07;2.60;94.80
19803;DHT22;66074;50.764;6.090;2023-03-03T06:20:33;2.70;94.70
19803;DHT22;66074;50.764;6.090;2023-03-03T06:23:00;2.70;94.80
19803;DHT22;66074;50.764;6.090;2023-03-03T06:25:25;2.80;94.80
19803;DHT22;66074;50.764;6.090;2023-03-03T06:27:51;2.80;94.70
19803;DHT22;66074;50.764;6.090;2023-03-03T06:30:17;2.70;95.00
19803;DHT22;66074;50.764;6.090;2023-03-03T06:32:43;2.70;94.70
19803;DHT22;66074;50.764;6.090;2023-03-03T06:35:09;2.80;94.70
19803;DHT22;66074;50.764;6.090;2023-03-03T06:37:35;2.80;94.80
19803;DHT22;66074;50.764;6.090;2023-03-03T06:40:02;2.80;94.60
19803;DHT22;66074;50.764;6.090;2023-03-03T06:42:28;2.90;94.80
19803;DHT22;66074;50.764;6.090;2023-03-03T06:44:54;2.90;95.00
19803;DHT22;66074;50.764;6.090;2023-03-03T06:47:19;3.00;94.70
19803;DHT22;66074;50.764;6.090;2023-03-03T06:49:45;3.00;94.70
19803;DHT22;66074;50.764;6.090;2023-03-03T06:52:13;3.10;94.50
19803;DHT22;66074;50.764;6.090;2023-03-03T06:54:39;3.00;94.50
19803;DHT22;66074;50.764;6.090;2023-03-03T06:57:16;3.10;94.60
19803;DHT22;66074;50.764;6.090;2023-03-03T06:59:47;3.10;94.80
19803;DHT22;66074;50.764;6.090;2023-03-03T07:02:16;3.10;94.70
19803;DHT22;66074;50.764;6.090;2023-03-03T07:04:42;3.10;94.60
19803;DHT22;66074;50.764;6.090;2023-03-03T07:07:23;3.10;94.70
19803;DHT22;66074;50.764;6.090;2023-03-03T07:09:51;3.10;95.10
19803;DHT22;66074;50.764;6.090;2023-03-03T07:12:20;3.00;94.60
19803;DHT22;66074;50.764;6.090;2023-03-03T07:14:49;3.00;94.70
19803;DHT22;66074;50.764;6.090;2023-03-03T07:17:22;3.00;94.60
19803;DHT22;66074;50.764;6.090;2023-03-03T07:19:48;2.90;95.10
19803;DHT22;66074;50.764;6.090;2023-03-03T07:22:19;2.80;94.60
19803;DHT22;66074;50.764;6.090;2023-03-03T07:24:49;2.80;94.80
19803;DHT22;66074;50.764;6.090;2023-03-03T07:27:26;2.80;94.80
19803;DHT22;66074;50.764;6.090;2023-03-03T07:29:54;2.90;95.00
19803;DHT22;66074;50.764;6.090;2023-03-03T07:34:55;2.90;94.80
19803;DHT22;66074;50.764;6.090;2023-03-03T07:37:30;3.00;94.60
19803;DHT22;66074;50.764;6.090;2023-03-03T07:39:59;3.10;94.80
19803;DHT22;66074;50.764;6.090;2023-03-03T07:42:38;3.10;94.70
19803;DHT22;66074;50.764;6.090;2023-03-03T07:45:31;3.10;94.80
19803;DHT22;66074;50.764;6.090;2023-03-03T07:50:33;3.10;94.90
19803;DHT22;66074;50.764;6.090;2023-03-03T07:53:01;3.10;95.00
19803;DHT22;66074;50.764;6.090;2023-03-03T07:55:33;3.20;94.70
19803;DHT22;66074;50.764;6.090;2023-03-03T08:03:36;3.10;94.80
19803;DHT22;66074;50.764;6.090;2023-03-03T08:06:23;3.10;94.40
19803;DHT22;66074;50.764;6.090;2023-03-03T08:08:51;2.90;94.30
19803;DHT22;66074;50.764;6.090;2023-03-03T08:11:17;3.00;94.50
19803;DHT22;66074;50.764;6.090;2023-03-03T08:13:42;2.90;94.50
19803;DHT22;66074;50.764;6.090;2023-03-03T08:18:43;2.80;94.70
19803;DHT22;66074;50.764;6.090;2023-03-03T08:21:14;2.90;94.70
19803;DHT22;66074;50.764;6.090;2023-03-03T08:23:40;3.00;94.70
19803;DHT22;66074;50.764;6.090;2023-03-03T08:26:06;3.10;94.40
19803;DHT22;66074;50.764;6.090;2023-03-03T08:28:33;3.10;94.30
19803;DHT22;66074;50.764;6.090;2023-03-03T08:30:59;3.20;94.50
19803;DHT22;66074;50.764;6.090;2023-03-03T08:33:24;3.10;94.50
19803;DHT22;66074;50.764;6.090;2023-03-03T08:35:50;3.30;94.50
19803;DHT22;66074;50.764;6.090;2023-03-03T08:38:18;3.10;94.40
19803;DHT22;66074;50.764;6.090;2023-03-03T08:40:44;3.10;94.40
19803;DHT22;66074;50.764;6.090;2023-03-03T08:43:10;3.20;94.60
19803;DHT22;66074;50.764;6.090;2023-03-03T08:45:43;3.30;94.60
19803;DHT22;66074;50.764;6.090;2023-03-03T08:48:09;3.30;94.50
19803;DHT22;66074;50.764;6.090;2023-03-03T08:50:34;3.30;94.40
19803;DHT22;66074;50.764;6.090;2023-03-03T08:53:00;3.30;94.40
19803;DHT22;66074;50.764;6.090;2023-03-03T08:55:26;3.30;94.30
19803;DHT22;66074;50.764;6.090;2023-03-03T08:57:51;3.30;94.30
19803;DHT22;66074;50.764;6.090;2023-03-03T09:00:18;3.30;94.40
19803;DHT22;66074;50.764;6.090;2023-03-03T09:02:44;3.30;94.20
19803;DHT22;66074;50.764;6.090;2023-03-03T09:05:11;3.30;94.20
19803;DHT22;66074;50.764;6.090;2023-03-03T09:07:37;3.20;94.20
19803;DHT22;66074;50.764;6.090;2023-03-03T09:10:04;3.30;94.20
19803;DHT22;66074;50.764;6.090;2023-03-03T09:12:34;3.30;94.10
19803;DHT22;66074;50.764;6.090;2023-03-03T09:15:30;3.20;94.20
19803;DHT22;66074;50.764;6.090;2023-03-03T09:18:17;3.20;94.30
19803;DHT22;66074;50.764;6.090;2023-03-03T09:20:46;3.20;94.30
19803;DHT22;66074;50.764;6.090;2023-03-03T09:25:53;3.40;94.20
19803;DHT22;66074;50.764;6.090;2023-03-03T09:30:50;3.50;94.10
19803;DHT22;66074;50.764;6.090;2023-03-03T09:33:44;3.50;94.00
19803;DHT22;66074;50.764;6.090;2023-03-03T09:36:36;3.50;94.20
19803;DHT22;66074;50.764;6.090;2023-03-03T09:39:21;3.50;94.30
19803;DHT22;66074;50.764;6.090;2023-03-03T09:42:03;3.50;94.30
19803;DHT22;66074;50.764;6.090;2023-03-03T09:55:56;3.70;93.90
19803;DHT22;66074;50.764;6.090;2023-03-03T10:04:00;3.90;93.80
19803;DHT22;66074;50.764;6.090;2023-03-03T10:07:35;4.00;93.70
19803;DHT22;66074;50.764;6.090;2023-03-03T10:12:27;4.00;93.70
19803;DHT22;66074;50.764;6.090;2023-03-03T10:18:37;4.10;93.60
19803;DHT22;66074;50.764;6.090;2023-03-03T10:21:01;4.20;93.60
19803;DHT22;66074;50.764;6.090;2023-03-03T10:23:52;4.10;93.70
19803;DHT22;66074;50.764;6.090;2023-03-03T10:29:34;4.30;93.70
19803;DHT22;66074;50.764;6.090;2023-03-03T10:35:29;4.10;93.50
19803;DHT22;66074;50.764;6.090;2023-03-03T10:49:13;4.30;93.50
19803;DHT22;66074;50.764;6.090;2023-03-03T11:06:04;4.10;93.40
19803;DHT22;66074;50.764;6.090;2023-03-03T11:08:50;4.20;93.30
19803;DHT22;66074;50.764;6.090;2023-03-03T11:24:23;4.30;93.10
19803;DHT22;66074;50.764;6.090;2023-03-03T11:30:07;4.60;93.10
19803;DHT22;66074;50.764;6.090;2023-03-03T11:32:53;4.70;93.00
19803;DHT22;66074;50.764;6.090;2023-03-03T11:35:28;4.80;92.90
19803;DHT22;66074;50.764;6.090;2023-03-03T11:38:12;4.90;92.80
19803;DHT22;66074;50.764;6.090;2023-03-03T11:41:02;4.90;92.80
19803;DHT22;66074;50.764;6.090;2023-03-03T11:43:51;4.90;92.60
19803;DHT22;66074;50.764;6.090;2023-03-03T11:46:23;4.90;92.50
19803;DHT22;66074;50.764;6.090;2023-03-03T11:48:55;4.90;92.60
19803;DHT22;66074;50.764;6.090;2023-03-03T11:54:41;4.80;92.60
19803;DHT22;66074;50.764;6.090;2023-03-03T11:57:19;4.90;92.50
19803;DHT22;66074;50.764;6.090;2023-03-03T12:13:34;5.40;92.50
19803;DHT22;66074;50.764;6.090;2023-03-03T12:19:14;5.50;91.90
19803;DHT22;66074;50.764;6.090;2023-03-03T12:21:57;5.60;92.30
19803;DHT22;66074;50.764;6.090;2023-03-03T12:35:38;5.50;92.10
19803;DHT22;66074;50.764;6.090;2023-03-03T12:38:19;5.50;92.30
19803;DHT22;66074;50.764;6.090;2023-03-03T12:48:41;5.70;92.00
19803;DHT22;66074;50.764;6.090;2023-03-03T13:07:32;5.50;92.00
19803;DHT22;66074;50.764;6.090;2023-03-03T13:13:23;5.60;91.80
19803;DHT22;66074;50.764;6.090;2023-03-03T13:16:19;5.70;92.00
19803;DHT22;66074;50.764;6.090;2023-03-03T13:19:14;5.70;91.80
19803;DHT22;66074;50.764;6.090;2023-03-03T13:21:49;5.70;91.60
19803;DHT22;66074;50.764;6.090;2023-03-03T13:24:32;5.60;91.80
19803;DHT22;66074;50.764;6.090;2023-03-03T13:27:12;5.60;91.80
19803;DHT22;66074;50.764;6.090;2023-03-03T13:29:49;5.60;91.60
19803;DHT22;66074;50.764;6.090;2023-03-03T13:32:23;5.70;91.80
19803;DHT22;66074;50.764;6.090;2023-03-03T13:37:28;5.80;91.80
19803;DHT22;66074;50.764;6.090;2023-03-03T13:40:00;5.70;91.70
19803;DHT22;66074;50.764;6.090;2023-03-03T13:44:56;5.80;91.80
19803;DHT22;66074;50.764;6.090;2023-03-03T13:53:24;5.80;91.70
19803;DHT22;66074;50.764;6.090;2023-03-03T13:58:29;5.80;91.40
19803;DHT22;66074;50.764;6.090;2023-03-03T14:01:08;5.70;91.50
19803;DHT22;66074;50.764;6.090;2023-03-03T14:03:45;5.60;91.40
19803;DHT22;66074;50.764;6.090;2023-03-03T14:06:20;5.70;91.70
19803;DHT22;66074;50.764;6.090;2023-03-03T14:11:34;5.70;91.50
19803;DHT22;66074;50.764;6.090;2023-03-03T14:20:11;5.60;91.20
19803;DHT22;66074;50.764;6.090;2023-03-03T14:22:51;5.50;91.30
19803;DHT22;66074;50.764;6.090;2023-03-03T14:25:18;5.50;91.30
19803;DHT22;66074;50.764;6.090;2023-03-03T14:38:12;5.40;91.30
19803;DHT22;66074;50.764;6.090;2023-03-03T14:40:39;5.40;91.20
19803;DHT22;66074;50.764;6.090;2023-03-03T14:43:37;5.40;91.40
19803;DHT22;66074;50.764;6.090;2023-03-03T14:46:32;5.40;91.30
19803;DHT22;66074;50.764;6.090;2023-03-03T14:49:04;5.50;91.40
19803;DHT22;66074;50.764;6.090;2023-03-03T14:51:45;5.50;91.40
19803;DHT22;66074;50.764;6.090;2023-03-03T14:57:08;5.50;91.30
19803;DHT22;66074;50.764;6.090;2023-03-03T14:59:37;5.50;91.30
19803;DHT22;66074;50.764;6.090;2023-03-03T15:04:42;5.60;91.40
19803;DHT22;66074;50.764;6.090;2023-03-03T15:07:34;5.70;91.50
19803;DHT22;66074;50.764;6.090;2023-03-03T15:10:00;5.70;91.30
19803;DHT22;66074;50.764;6.090;2023-03-03T15:12:34;5.70;91.50
19803;DHT22;66074;50.764;6.090;2023-03-03T15:22:58;5.70;91.30
19803;DHT22;66074;50.764;6.090;2023-03-03T15:25:35;5.60;91.20
19803;DHT22;66074;50.764;6.090;2023-03-03T15:30:50;5.50;91.30
19803;DHT22;66074;50.764;6.090;2023-03-03T15:36:05;5.50;91.20
19803;DHT22;66074;50.764;6.090;2023-03-03T15:38:41;5.50;91.30
19803;DHT22;66074;50.764;6.090;2023-03-03T15:44:10;5.50;91.30
19803;DHT22;66074;50.764;6.090;2023-03-03T15:46:50;5.50;91.30
19803;DHT22;66074;50.764;6.090;2023-03-03T15:52:09;5.60;91.20
19803;DHT22;66074;50.764;6.090;2023-03-03T15:55:14;5.60;91.20
19803;DHT22;66074;50.764;6.090;2023-03-03T16:03:25;5.60;91.20
19803;DHT22;66074;50.764;6.090;2023-03-03T16:05:55;5.70;91.40
19803;DHT22;66074;50.764;6.090;2023-03-03T16:11:24;5.70;91.20
19803;DHT22;66074;50.764;6.090;2023-03-03T16:14:17;5.70;91.20
19803;DHT22;66074;50.764;6.090;2023-03-03T16:17:19;5.60;91.20
19803;DHT22;66074;50.764;6.090;2023-03-03T16:19:58;5.60;91.10
19803;DHT22;66074;50.764;6.090;2023-03-03T16:22:55;5.50;91.20
19803;DHT22;66074;50.764;6.090;2023-03-03T16:28:16;5.40;91.30
19803;DHT22;66074;50.764;6.090;2023-03-03T16:33:33;5.40;91.30
19803;DHT22;66074;50.764;6.090;2023-03-03T16:39:14;5.20;91.20
19803;DHT22;66074;50.764;6.090;2023-03-03T16:42:38;5.10;91.20
19803;DHT22;66074;50.764;6.090;2023-03-03T16:45:02;5.00;91.30
19803;DHT22;66074;50.764;6.090;2023-03-03T16:53:23;4.70;91.80
19803;DHT22;66074;50.764;6.090;2023-03-03T17:04:00;4.60;91.70
19803;DHT22;66074;50.764;6.090;2023-03-03T17:06:30;4.60;92.00
19803;DHT22;66074;50.764;6.090;2023-03-03T17:09:02;4.60;92.00
19803;DHT22;66074;50.764;6.090;2023-03-03T17:11:48;4.60;91.80
19803;DHT22;66074;50.764;6.090;2023-03-03T17:17:28;4.40;92.30
19803;DHT22;66074;50.764;6.090;2023-03-03T17:23:06;4.50;92.20
19803;DHT22;66074;50.764;6.090;2023-03-03T17:31:21;4.50;92.00
19803;DHT22;66074;50.764;6.090;2023-03-03T17:36:57;4.30;92.10
19803;DHT22;66074;50.764;6.090;2023-03-03T17:42:40;4.20;92.10
19803;DHT22;66074;50.764;6.090;2023-03-03T17:45:17;4.10;92.10
19803;DHT22;66074;50.764;6.090;2023-03-03T17:59:15;3.90;92.20
19803;DHT22;66074;50.764;6.090;2023-03-03T18:01:48;3.90;92.30
19803;DHT22;66074;50.764;6.090;2023-03-03T18:12:56;3.70;92.30
19803;DHT22;66074;50.764;6.090;2023-03-03T18:23:50;3.50;92.40
19803;DHT22;66074;50.764;6.090;2023-03-03T18:26:36;3.50;92.30
19803;DHT22;66074;50.764;6.090;2023-03-03T18:29:10;3.50;92.50
19803;DHT22;66074;50.764;6.090;2023-03-03T18:34:30;3.40;92.60
19803;DHT22;66074;50.764;6.090;2023-03-03T18:39:40;3.30;92.50
19803;DHT22;66074;50.764;6.090;2023-03-03T18:44:40;3.30;92.60
19803;DHT22;66074;50.764;6.090;2023-03-03T18:47:06;3.20;92.60
19803;DHT22;66074;50.764;6.090;2023-03-03T18:50:00;3.20;92.60
19803;DHT22;66074;50.764;6.090;2023-03-03T18:52:33;3.20;92.90
19803;DHT22;66074;50.764;6.090;2023-03-03T18:57:35;3.20;92.90
19803;DHT22;66074;50.764;6.090;2023-03-03T19:00:22;3.20;92.70
19803;DHT22;66074;50.764;6.090;2023-03-03T19:02:53;3.20;93.10
19803;DHT22;66074;50.764;6.090;2023-03-03T19:05:33;3.20;92.90
19803;DHT22;66074;50.764;6.090;2023-03-03T19:08:22;3.20;92.90
19803;DHT22;66074;50.764;6.090;2023-03-03T19:10:53;3.10;93.10
19803;DHT22;66074;50.764;6.090;2023-03-03T19:16:03;3.10;93.10
19803;DHT22;66074;50.764;6.090;2023-03-03T19:18:59;3.10;93.00
19803;DHT22;66074;50.764;6.090;2023-03-03T19:21:34;3.10;93.30
19803;DHT22;66074;50.764;6.090;2023-03-03T19:35:19;3.00;93.10
19803;DHT22;66074;50.764;6.090;2023-03-03T19:38:33;3.00;93.20
19803;DHT22;66074;50.764;6.090;2023-03-03T19:40:46;3.00;93.00
19803;DHT22;66074;50.764;6.090;2023-03-03T19:43:30;3.00;92.90
19803;DHT22;66074;50.764;6.090;2023-03-03T19:49:26;3.00;93.10
19803;DHT22;66074;50.764;6.090;2023-03-03T19:52:02;3.00;93.20
19803;DHT22;66074;50.764;6.090;2023-03-03T20:08:42;2.90;93.20
19803;DHT22;66074;50.764;6.090;2023-03-03T20:11:27;2.90;93.10
19803;DHT22;66074;50.764;6.090;2023-03-03T20:16:39;2.90;93.20
19803;DHT22;66074;50.764;6.090;2023-03-03T20:22:18;3.00;93.50
19803;DHT22;66074;50.764;6.090;2023-03-03T20:35:31;3.20;93.30
19803;DHT22;66074;50.764;6.090;2023-03-03T20:44:02;3.40;93.20
19803;DHT22;66074;50.764;6.090;2023-03-03T20:46:38;3.50;93.30
19803;DHT22;66074;50.764;6.090;2023-03-03T20:54:38;3.70;93.30
19803;DHT22;66074;50.764;6.090;2023-03-03T20:57:21;3.70;93.30
19803;DHT22;66074;50.764;6.090;2023-03-03T20:59:57;3.80;93.40
19803;DHT22;66074;50.764;6.090;2023-03-03T21:05:18;3.80;93.40
19803;DHT22;66074;50.764;6.090;2023-03-03T21:10:25;3.90;93.40
19803;DHT22;66074;50.764;6.090;2023-03-03T21:12:56;3.90;93.40
19803;DHT22;66074;50.764;6.090;2023-03-03T21:15:30;4.00;93.30
19803;DHT22;66074;50.764;6.090;2023-03-03T21:17:56;4.00;93.30
19803;DHT22;66074;50.764;6.090;2023-03-03T21:20:31;4.10;93.30
19803;DHT22;66074;50.764;6.090;2023-03-03T21:22:59;4.00;93.40
19803;DHT22;66074;50.764;6.090;2023-03-03T21:28:32;4.00;93.40
19803;DHT22;66074;50.764;6.090;2023-03-03T21:31:08;4.10;93.50
19803;DHT22;66074;50.764;6.090;2023-03-03T21:33:54;4.10;93.40
19803;DHT22;66074;50.764;6.090;2023-03-03T21:39:18;4.10;93.40
19803;DHT22;66074;50.764;6.090;2023-03-03T21:41:59;4.10;93.50
19803;DHT22;66074;50.764;6.090;2023-03-03T21:44:50;4.10;93.50
19803;DHT22;66074;50.764;6.090;2023-03-03T21:47:19;4.20;93.60
19803;DHT22;66074;50.764;6.090;2023-03-03T21:49:49;4.20;93.50
19803;DHT22;66074;50.764;6.090;2023-03-03T21:52:17;4.30;93.50
19803;DHT22;66074;50.764;6.090;2023-03-03T21:54:47;4.30;93.50
19803;DHT22;66074;50.764;6.090;2023-03-03T21:57:13;4.30;93.80
19803;DHT22;66074;50.764;6.090;2023-03-03T21:59:39;4.20;93.50
19803;DHT22;66074;50.764;6.090;2023-03-03T22:02:06;4.30;93.60
19803;DHT22;66074;50.764;6.090;2023-03-03T22:04:32;4.30;93.60
19803;DHT22;66074;50.764;6.090;2023-03-03T22:06:58;4.30;93.50
19803;DHT22;66074;50.764;6.090;2023-03-03T22:09:27;4.40;93.80
19803;DHT22;66074;50.764;6.090;2023-03-03T22:11:52;4.40;93.70
19803;DHT22;66074;50.764;6.090;2023-03-03T22:14:18;4.40;93.40
19803;DHT22;66074;50.764;6.090;2023-03-03T22:16:44;4.50;93.50
19803;DHT22;66074;50.764;6.090;2023-03-03T22:19:10;4.50;93.40
19803;DHT22;66074;50.764;6.090;2023-03-03T22:21:37;4.60;93.40
19803;DHT22;66074;50.764;6.090;2023-03-03T22:24:03;4.40;93.60
19803;DHT22;66074;50.764;6.090;2023-03-03T22:26:29;4.40;93.60
19803;DHT22;66074;50.764;6.090;2023-03-03T22:28:55;4.40;93.60
19803;DHT22;66074;50.764;6.090;2023-03-03T22:31:20;4.50;93.60